createdAt,value
2023-05-24T00:00:53.234Z,3.63
2023-05-24T00:03:59.068Z,3.30
2023-05-24T00:07:03.358Z,3.73
2023-05-24T00:10:06.086Z,3.63
2023-05-24T00:13:07.560Z,4.53
2023-05-24T00:16:09.008Z,3.63
2023-05-24T00:19:11.352Z,3.40
2023-05-24T00:22:13.995Z,3.33
2023-05-24T00:25:15.472Z,4.07
2023-05-24T00:28:16.904Z,3.60
2023-05-24T00:31:20.154Z,4.17
2023-05-24T00:34:21.612Z,4.10
2023-05-24T00:37:23.394Z,4.20
2023-05-24T00:40:24.843Z,3.93
2023-05-24T00:43:26.592Z,3.73
2023-05-24T00:46:30.620Z,3.60
2023-05-24T00:49:32.972Z,3.67
2023-05-24T00:52:34.763Z,3.70
2023-05-24T00:55:36.694Z,4.20
2023-05-24T00:58:38.221Z,3.70
2023-05-24T01:01:41.853Z,4.07
2023-05-24T01:04:43.562Z,3.93
2023-05-24T01:08:25.590Z,3.60
2023-05-24T01:11:43.254Z,3.77
2023-05-24T01:15:01.558Z,3.77
2023-05-24T01:18:11.526Z,3.23
2023-05-24T01:21:12.988Z,3.90
2023-05-24T01:24:44.327Z,3.90
2023-05-24T01:27:47.432Z,3.80
2023-05-24T01:30:49.046Z,3.70
2023-05-24T01:33:50.531Z,3.67
2023-05-24T01:36:54.199Z,3.63
2023-05-24T01:39:56.079Z,3.93
2023-05-24T01:43:17.976Z,4.20
2023-05-24T01:46:30.275Z,4.40
2023-05-24T01:49:37.026Z,3.50
2023-05-24T01:52:39.775Z,3.80
2023-05-24T01:55:42.373Z,4.23
2023-05-24T01:58:45.329Z,3.43
2023-05-24T02:01:47.189Z,3.73
2023-05-24T02:04:49.104Z,4.07
2023-05-24T02:07:50.901Z,4.00
2023-05-24T02:10:52.358Z,3.83
2023-05-24T02:13:53.783Z,4.07
2023-05-24T02:16:58.694Z,3.80
2023-05-24T02:20:00.518Z,3.53
2023-05-24T02:23:03.813Z,3.40
2023-05-24T02:26:05.281Z,3.93
2023-05-24T02:29:06.819Z,3.73
2023-05-24T02:32:08.704Z,3.40
2023-05-24T02:35:10.166Z,3.87
2023-05-24T02:38:11.682Z,4.23
2023-05-24T02:41:17.801Z,4.23
2023-05-24T02:44:19.462Z,4.00
2023-05-24T02:47:20.996Z,3.97
2023-05-24T02:50:22.612Z,4.00
2023-05-24T02:53:24.173Z,3.50
2023-05-24T02:56:26.540Z,4.00
2023-05-24T02:59:29.060Z,3.80
2023-05-24T03:02:30.547Z,4.87
2023-05-24T03:05:32.022Z,3.37
2023-05-24T03:08:34.850Z,3.40
2023-05-24T03:11:36.358Z,3.83
2023-05-24T03:14:37.782Z,4.43
2023-05-24T03:17:39.328Z,3.13
2023-05-24T03:20:41.188Z,3.57
2023-05-24T03:23:43.541Z,3.33
2023-05-24T03:26:45.169Z,3.33
2023-05-24T03:29:46.636Z,3.63
2023-05-24T03:32:48.959Z,3.40
2023-05-24T03:35:50.850Z,3.80
2023-05-24T03:38:52.303Z,3.87
2023-05-24T03:41:55.052Z,3.30
2023-05-24T03:44:56.533Z,3.10
2023-05-24T03:47:58.518Z,3.90
2023-05-24T03:51:00.005Z,3.10
2023-05-24T03:54:01.536Z,3.83
2023-05-24T03:57:03.079Z,2.83
2023-05-24T04:00:07.157Z,3.80
2023-05-24T04:03:15.568Z,3.63
2023-05-24T04:06:17.703Z,3.23
2023-05-24T04:09:19.541Z,3.43
2023-05-24T04:12:21.057Z,3.67
2023-05-24T04:15:23.916Z,3.20
2023-05-24T04:18:25.486Z,3.17
2023-05-24T04:21:30.284Z,3.10
2023-05-24T04:24:31.771Z,3.43
2023-05-24T04:27:33.320Z,3.40
2023-05-24T04:30:36.671Z,3.37
2023-05-24T04:33:39.524Z,3.80
2023-05-24T04:36:41.356Z,3.57
2023-05-24T04:39:45.483Z,3.37
2023-05-24T04:42:47.052Z,3.33
2023-05-24T04:45:48.712Z,3.70
2023-05-24T04:48:50.228Z,3.53
2023-05-24T04:51:53.438Z,2.87
2023-05-24T04:54:57.992Z,3.33
2023-05-24T04:57:59.510Z,3.87
2023-05-24T05:01:02.046Z,3.93
2023-05-24T05:04:07.258Z,3.13
2023-05-24T05:07:08.818Z,3.53
2023-05-24T05:10:10.559Z,3.43
2023-05-24T05:13:12.071Z,3.50
2023-05-24T05:16:13.681Z,3.40
2023-05-24T05:19:16.049Z,3.17
2023-05-24T05:22:17.662Z,3.60
2023-05-24T05:25:19.213Z,3.30
2023-05-24T05:28:20.934Z,2.83
2023-05-24T05:31:24.559Z,3.00
2023-05-24T05:34:26.118Z,3.80
2023-05-24T05:37:27.618Z,2.80
2023-05-24T05:40:29.044Z,4.00
2023-05-24T05:43:31.495Z,3.27
2023-05-24T05:46:32.945Z,3.63
2023-05-24T05:49:36.422Z,3.77
2023-05-24T05:52:37.865Z,2.90
2023-05-24T05:55:39.322Z,3.17
2023-05-24T05:58:40.796Z,3.30
2023-05-24T06:01:42.995Z,3.17
2023-05-24T06:04:45.718Z,2.80
2023-05-24T06:07:47.495Z,3.20
2023-05-24T06:10:50.142Z,3.90
2023-05-24T06:13:54.008Z,3.20
2023-05-24T06:16:56.822Z,3.23
2023-05-24T06:20:00.309Z,2.97
2023-05-24T06:23:01.865Z,3.17
2023-05-24T06:26:04.005Z,2.97
2023-05-24T06:29:05.470Z,3.47
2023-05-24T06:32:06.958Z,3.27
2023-05-24T06:35:08.934Z,3.23
2023-05-24T06:38:10.438Z,3.30
2023-05-24T06:41:11.898Z,3.67
2023-05-24T06:44:13.680Z,3.83
2023-05-24T06:47:15.333Z,2.90
2023-05-24T06:50:16.918Z,3.60
2023-05-24T06:53:18.384Z,2.97
2023-05-24T06:56:20.089Z,3.20
2023-05-24T06:59:22.751Z,2.73
2023-05-24T07:02:27.368Z,3.03
2023-05-24T07:05:28.857Z,3.53
2023-05-24T07:08:30.664Z,3.27
2023-05-24T07:11:32.177Z,2.80
2023-05-24T07:14:33.690Z,3.00
2023-05-24T07:17:35.230Z,2.70
2023-05-24T07:20:36.719Z,3.10
2023-05-24T07:23:38.228Z,2.80
2023-05-24T07:26:39.913Z,2.60
2023-05-24T07:29:41.327Z,2.80
2023-05-24T07:32:42.993Z,3.13
2023-05-24T07:35:48.464Z,3.00
2023-05-24T07:38:49.948Z,2.70
2023-05-24T07:41:51.816Z,2.90
2023-05-24T07:44:53.273Z,2.40
2023-05-24T07:47:56.863Z,2.57
2023-05-24T07:50:58.515Z,2.90
2023-05-24T07:54:00.279Z,2.60
2023-05-24T07:57:02.719Z,2.73
2023-05-24T08:00:14.193Z,3.03
2023-05-24T08:03:17.373Z,2.43
2023-05-24T08:06:19.159Z,2.40
2023-05-24T08:09:20.676Z,2.90
2023-05-24T08:12:22.457Z,2.30
2023-05-24T08:15:24.892Z,2.27
2023-05-24T08:18:26.731Z,2.87
2023-05-24T08:21:29.111Z,2.27
2023-05-24T08:24:32.045Z,2.37
2023-05-24T08:27:33.568Z,2.63
2023-05-24T08:30:35.208Z,3.10
2023-05-24T08:33:36.734Z,2.67
2023-05-24T08:36:39.095Z,2.70
2023-05-24T08:39:40.747Z,2.20
2023-05-24T08:42:42.449Z,2.60
2023-05-24T08:45:45.642Z,2.60
2023-05-24T08:48:48.366Z,2.53
2023-05-24T08:51:51.850Z,2.23
2023-05-24T08:54:53.525Z,2.90
2023-05-24T08:57:56.331Z,2.83
2023-05-24T09:00:59.694Z,2.33
2023-05-24T09:04:04.693Z,2.50
2023-05-24T09:07:07.740Z,2.50
2023-05-24T09:10:09.907Z,2.80
2023-05-24T09:13:15.229Z,2.60
2023-05-24T09:16:16.996Z,2.67
2023-05-24T09:19:20.052Z,2.23
2023-05-24T09:22:25.895Z,2.57
2023-05-24T09:25:28.053Z,2.80
2023-05-24T09:28:32.324Z,2.47
2023-05-24T09:31:34.909Z,2.83
2023-05-24T09:34:43.618Z,2.80
2023-05-24T09:37:47.013Z,2.80
2023-05-24T09:40:58.782Z,2.90
2023-05-24T09:44:01.900Z,2.43
2023-05-24T09:47:05.059Z,3.10
2023-05-24T09:50:17.326Z,2.60
2023-05-24T09:53:19.285Z,2.87
2023-05-24T09:56:21.172Z,2.53
2023-05-24T09:59:22.908Z,2.83
2023-05-24T10:02:25.777Z,2.80
2023-05-24T10:05:27.620Z,2.87
2023-05-24T10:08:29.235Z,2.47
2023-05-24T10:11:33.316Z,2.63
2023-05-24T10:14:37.524Z,2.27
2023-05-24T10:17:39.131Z,2.63
2023-05-24T10:20:44.377Z,2.77
2023-05-24T10:23:52.721Z,2.70
2023-05-24T10:26:56.133Z,2.67
2023-05-24T10:30:14.987Z,2.77
2023-05-24T10:33:18.301Z,2.50
2023-05-24T10:36:20.126Z,2.20
2023-05-24T10:39:22.710Z,2.43
2023-05-24T10:42:24.287Z,2.20
2023-05-24T10:45:26.287Z,2.10
2023-05-24T10:48:27.644Z,2.60
2023-05-24T10:51:39.358Z,2.30
2023-05-24T10:54:49.532Z,2.70
2023-05-24T10:58:05.829Z,2.93
2023-05-24T11:01:13.898Z,2.80
2023-05-24T11:04:18.229Z,2.77
2023-05-24T11:07:19.832Z,2.60
2023-05-24T11:10:31.111Z,2.87
2023-05-24T11:13:33.557Z,3.20
2023-05-24T11:16:38.791Z,2.77
2023-05-24T11:19:50.192Z,3.13
2023-05-24T11:22:52.336Z,3.20
2023-05-24T11:25:53.777Z,2.60
2023-05-24T11:28:55.878Z,2.63
2023-05-24T11:32:07.730Z,2.77
2023-05-24T11:35:11.549Z,2.63
2023-05-24T11:38:14.902Z,2.87
2023-05-24T11:41:17.404Z,2.63
2023-05-24T11:44:21.791Z,2.27
2023-05-24T11:47:23.452Z,2.80
2023-05-24T11:50:26.603Z,2.50
2023-05-24T11:53:30.011Z,2.67
2023-05-24T11:56:33.926Z,2.87
2023-05-24T11:59:37.793Z,2.63
2023-05-24T12:02:40.352Z,2.40
2023-05-24T12:05:43.011Z,2.40
2023-05-24T12:08:44.462Z,2.50
2023-05-24T12:11:50.704Z,2.70
2023-05-24T12:14:55.486Z,2.63
2023-05-24T12:17:57.991Z,2.60
2023-05-24T12:20:59.523Z,2.60
2023-05-24T12:24:11.813Z,2.43
2023-05-24T12:27:13.346Z,2.47
2023-05-24T12:30:21.090Z,2.60
2023-05-24T12:33:24.218Z,2.40
2023-05-24T12:36:27.797Z,2.43
2023-05-24T12:39:35.117Z,2.30
2023-05-24T12:42:37.011Z,2.43
2023-05-24T12:45:38.482Z,2.63
2023-05-24T12:48:40.180Z,2.50
2023-05-24T12:51:41.623Z,2.47
2023-05-24T12:54:43.052Z,2.60
2023-05-24T12:57:52.914Z,2.50
2023-05-24T13:00:54.487Z,2.47
2023-05-24T13:03:56.236Z,2.47
2023-05-24T13:06:57.660Z,2.30
2023-05-24T13:10:00.161Z,3.10
2023-05-24T13:13:01.690Z,3.00
2023-05-24T13:16:05.476Z,2.10
2023-05-24T13:19:07.045Z,2.90
2023-05-24T13:22:08.864Z,2.80
2023-05-24T13:25:10.597Z,3.13
2023-05-24T13:28:13.215Z,2.67
2023-05-24T13:31:14.920Z,2.90
2023-05-24T13:34:17.808Z,2.83
2023-05-24T13:37:19.789Z,2.70
2023-05-24T13:40:22.075Z,2.93
2023-05-24T13:43:23.501Z,3.10
2023-05-24T13:46:25.034Z,3.30
2023-05-24T13:49:26.598Z,2.83
2023-05-24T13:52:28.038Z,2.80
2023-05-24T13:55:31.377Z,2.83
2023-05-24T13:58:32.829Z,2.83
2023-05-24T14:01:36.922Z,3.03
2023-05-24T14:04:38.506Z,2.97
2023-05-24T14:07:40.170Z,2.70
2023-05-24T14:10:41.770Z,2.90
2023-05-24T14:14:43.092Z,2.73
2023-05-24T14:17:05.817Z,2.90
2023-05-24T14:20:07.987Z,3.37
2023-05-24T14:23:10.222Z,3.13
2023-05-24T14:26:11.992Z,3.30
2023-05-24T14:29:13.607Z,3.00
2023-05-24T14:32:17.112Z,3.87
2023-05-24T14:35:18.561Z,3.23
2023-05-24T14:38:20.031Z,3.80
2023-05-24T14:41:22.505Z,2.97
2023-05-24T14:44:24.056Z,2.97
2023-05-24T14:47:25.699Z,3.27
2023-05-24T14:50:27.190Z,3.57
2023-05-24T14:53:28.727Z,2.93
2023-05-24T14:56:30.800Z,3.10
2023-05-24T14:59:32.334Z,3.40
2023-05-24T15:02:34.248Z,2.90
2023-05-24T15:05:36.493Z,3.17
2023-05-24T15:08:38.235Z,2.90
2023-05-24T15:11:39.681Z,3.17
2023-05-24T15:14:41.238Z,3.27
2023-05-24T15:17:42.737Z,2.87
2023-05-24T15:20:44.581Z,2.93
2023-05-24T15:23:46.910Z,3.47
2023-05-24T15:26:48.454Z,3.20
2023-05-24T15:29:50.709Z,3.47
2023-05-24T15:32:52.188Z,2.80
2023-05-24T15:35:54.811Z,3.17
2023-05-24T15:38:56.243Z,3.37
2023-05-24T15:41:57.751Z,2.77
2023-05-24T15:44:59.206Z,3.00
2023-05-24T15:48:01.679Z,2.80
2023-05-24T15:51:58.101Z,2.80
2023-05-24T15:54:24.684Z,3.37
2023-05-24T15:57:28.280Z,3.40
2023-05-24T16:00:29.902Z,2.83
2023-05-24T16:03:31.445Z,3.53
2023-05-24T16:06:33.312Z,2.67
2023-05-24T16:09:34.857Z,3.00
2023-05-24T16:12:36.312Z,2.93
2023-05-24T16:15:40.787Z,2.80
2023-05-24T16:18:42.234Z,3.07
2023-05-24T16:21:43.786Z,2.90
2023-05-24T16:24:45.449Z,3.10
2023-05-24T16:27:46.921Z,3.23
2023-05-24T16:30:48.773Z,3.13
2023-05-24T16:33:50.270Z,3.30
2023-05-24T16:36:52.147Z,3.10
2023-05-24T16:39:53.613Z,3.00
2023-05-24T16:42:55.556Z,2.70
2023-05-24T16:45:57.056Z,2.73
2023-05-24T16:48:59.491Z,2.70
2023-05-24T16:52:02.598Z,3.10
2023-05-24T16:55:04.467Z,2.83
2023-05-24T16:58:06.545Z,2.70
2023-05-24T17:01:08.059Z,2.80
2023-05-24T17:04:09.808Z,2.50
2023-05-24T17:07:12.183Z,2.50
2023-05-24T17:10:13.745Z,2.70
2023-05-24T17:13:16.262Z,2.60
2023-05-24T17:16:17.822Z,2.60
2023-05-24T17:19:20.883Z,3.00
2023-05-24T17:22:22.310Z,2.90
2023-05-24T17:25:23.740Z,2.87
2023-05-24T17:28:27.523Z,2.57
2023-05-24T17:31:29.137Z,3.00
2023-05-24T17:34:30.651Z,2.97
2023-05-24T17:37:33.181Z,2.90
2023-05-24T17:40:34.595Z,3.00
2023-05-24T17:43:38.929Z,2.83
2023-05-24T17:46:41.790Z,2.53
2023-05-24T17:49:43.352Z,3.03
2023-05-24T17:52:44.921Z,2.87
2023-05-24T17:55:47.331Z,2.90
2023-05-24T17:58:50.413Z,2.90
2023-05-24T18:01:52.059Z,3.37
2023-05-24T18:04:55.312Z,3.10
2023-05-24T18:07:56.868Z,2.97
2023-05-24T18:10:58.604Z,3.00
2023-05-24T18:14:00.486Z,2.70
2023-05-24T18:17:01.994Z,3.17
2023-05-24T18:20:03.797Z,3.30
2023-05-24T18:23:05.253Z,2.80
2023-05-24T18:26:08.196Z,3.10
2023-05-24T18:29:09.663Z,3.07
2023-05-24T18:32:11.316Z,3.47
2023-05-24T18:35:14.016Z,3.97
2023-05-24T18:38:15.635Z,3.10
2023-05-24T18:41:18.265Z,2.63
2023-05-24T18:44:19.745Z,2.80
2023-05-24T18:47:21.296Z,3.43
2023-05-24T18:50:23.212Z,2.57
2023-05-24T18:53:25.620Z,3.27
2023-05-24T18:56:28.035Z,2.73
2023-05-24T18:59:31.529Z,3.03
2023-05-24T19:02:38.358Z,3.00
2023-05-24T19:05:43.367Z,2.80
2023-05-24T19:08:45.423Z,3.00
2023-05-24T19:11:47.673Z,2.83
2023-05-24T19:14:49.259Z,3.37
2023-05-24T19:17:53.074Z,2.80
2023-05-24T19:20:54.773Z,3.07
2023-05-24T19:23:56.301Z,3.30
2023-05-24T19:26:57.763Z,3.30
2023-05-24T19:29:59.990Z,2.83
2023-05-24T19:33:01.633Z,3.00
2023-05-24T19:36:03.368Z,3.23
2023-05-24T19:39:04.891Z,3.20
2023-05-24T19:42:06.607Z,3.70
2023-05-24T19:45:09.379Z,3.20
2023-05-24T19:48:10.960Z,3.20
2023-05-24T19:51:13.211Z,3.67
2023-05-24T19:54:14.941Z,2.80
2023-05-24T19:57:16.656Z,2.93
2023-05-24T20:00:18.301Z,3.40
2023-05-24T20:03:21.481Z,4.23
2023-05-24T20:06:23.327Z,4.43
2023-05-24T20:09:24.964Z,3.93
2023-05-24T20:12:27.650Z,3.63
2023-05-24T20:15:29.183Z,3.73
2023-05-24T20:18:30.795Z,3.30
2023-05-24T20:21:32.687Z,3.27
2023-05-24T20:24:34.104Z,2.97
2023-05-24T20:27:35.593Z,3.63
2023-05-24T20:30:37.443Z,3.60
2023-05-24T20:33:39.010Z,3.20
2023-05-24T20:36:42.077Z,3.20
2023-05-24T20:39:45.176Z,3.40
2023-05-24T20:42:46.687Z,2.80
2023-05-24T20:45:48.166Z,3.60
2023-05-24T20:48:49.718Z,3.60
2023-05-24T20:51:51.358Z,3.90
2023-05-24T20:54:52.782Z,3.20
2023-05-24T20:57:54.209Z,3.33
2023-05-24T21:00:55.973Z,3.07
2023-05-24T21:03:57.434Z,2.97
2023-05-24T21:06:58.841Z,3.03
2023-05-24T21:10:00.339Z,3.13
2023-05-24T21:13:01.756Z,2.57
2023-05-24T21:16:03.441Z,3.13
2023-05-24T21:19:04.875Z,3.13
2023-05-24T21:22:06.391Z,3.60
2023-05-24T21:25:08.393Z,3.40
2023-05-24T21:28:10.530Z,3.33
2023-05-24T21:31:12.142Z,3.40
2023-05-24T21:34:13.750Z,3.03
2023-05-24T21:37:16.397Z,3.03
2023-05-24T21:40:17.874Z,3.37
2023-05-24T21:43:19.309Z,3.07
2023-05-24T21:46:20.808Z,3.20
2023-05-24T21:49:22.454Z,3.07
2023-05-24T21:52:23.870Z,3.13
2023-05-24T21:55:25.429Z,2.50
2023-05-24T21:58:26.896Z,3.30
2023-05-24T22:01:28.820Z,3.17
2023-05-24T22:04:30.359Z,2.97
2023-05-24T22:07:31.808Z,3.23
2023-05-24T22:10:33.477Z,3.13
2023-05-24T22:13:34.979Z,3.00
2023-05-24T22:16:36.758Z,3.03
2023-05-24T22:19:40.462Z,2.97
2023-05-24T22:22:48.294Z,3.27
2023-05-24T22:25:49.763Z,3.10
2023-05-24T22:29:00.299Z,3.03
2023-05-24T22:32:01.854Z,3.03
2023-05-24T22:35:03.436Z,3.00
2023-05-24T22:38:05.093Z,3.20
2023-05-24T22:41:06.577Z,3.23
2023-05-24T22:44:08.064Z,2.90
2023-05-24T22:47:11.922Z,3.50
2023-05-24T22:50:13.897Z,3.33
2023-05-24T22:53:17.052Z,3.60
2023-05-24T22:56:18.573Z,3.20
2023-05-24T22:59:20.034Z,3.00
2023-05-24T23:02:21.492Z,3.10
2023-05-24T23:05:23.935Z,2.83
2023-05-24T23:08:25.554Z,2.90
2023-05-24T23:11:27.069Z,3.33
2023-05-24T23:14:30.262Z,2.83
2023-05-24T23:17:31.757Z,2.90
2023-05-24T23:20:39.939Z,2.90
2023-05-24T23:23:42.007Z,2.90
2023-05-24T23:26:43.487Z,3.07
2023-05-24T23:29:44.950Z,3.17
2023-05-24T23:32:46.430Z,3.43
2023-05-24T23:35:47.974Z,2.30
2023-05-24T23:38:49.432Z,3.00
2023-05-24T23:41:51.040Z,2.80
2023-05-24T23:44:52.589Z,2.80
2023-05-24T23:47:54.218Z,3.50
2023-05-24T23:50:55.757Z,2.90
2023-05-24T23:53:57.346Z,2.90
2023-05-24T23:56:58.759Z,2.93
